sensor_id;sensor_type;location;lat;lon;timestamp;temperature;humidity
8220;DHT22;4151;51.110;7.020;2022-08-24T00:01:05;20.20;99.90
8220;DHT22;4151;51.110;7.020;2022-08-24T00:03:32;20.20;99.90
8220;DHT22;4151;51.110;7.020;2022-08-24T00:05:58;20.20;99.90
8220;DHT22;4151;51.110;7.020;2022-08-24T00:08:24;20.10;99.90
8220;DHT22;4151;51.110;7.020;2022-08-24T00:10:51;20.10;99.90
8220;DHT22;4151;51.110;7.020;2022-08-24T00:13:17;20.10;99.90
8220;DHT22;4151;51.110;7.020;2022-08-24T00:15:43;20.10;99.90
8220;DHT22;4151;51.110;7.020;2022-08-24T00:18:09;20.00;99.90
8220;DHT22;4151;51.110;7.020;2022-08-24T00:20:36;20.00;99.90
8220;DHT22;4151;51.110;7.020;2022-08-24T00:23:02;19.80;99.90
8220;DHT22;4151;51.110;7.020;2022-08-24T00:25:28;19.80;99.90
8220;DHT22;4151;51.110;7.020;2022-08-24T00:27:54;19.70;99.90
8220;DHT22;4151;51.110;7.020;2022-08-24T00:30:20;19.80;99.90
8220;DHT22;4151;51.110;7.020;2022-08-24T00:32:46;19.70;99.90
8220;DHT22;4151;51.110;7.020;2022-08-24T00:35:13;19.80;99.90
8220;DHT22;4151;51.110;7.020;2022-08-24T00:37:40;19.70;99.90
8220;DHT22;4151;51.110;7.020;2022-08-24T00:40:10;19.70;99.90
8220;DHT22;4151;51.110;7.020;2022-08-24T00:42:37;19.60;99.90
8220;DHT22;4151;51.110;7.020;2022-08-24T00:45:04;19.50;99.90
8220;DHT22;4151;51.110;7.020;2022-08-24T00:47:38;19.50;99.90
8220;DHT22;4151;51.110;7.020;2022-08-24T00:50:10;19.40;99.90
8220;DHT22;4151;51.110;7.020;2022-08-24T00:52:42;19.40;99.90
8220;DHT22;4151;51.110;7.020;2022-08-24T00:55:21;19.30;99.90
8220;DHT22;4151;51.110;7.020;2022-08-24T00:57:50;19.30;99.90
8220;DHT22;4151;51.110;7.020;2022-08-24T01:00:20;19.40;99.90
8220;DHT22;4151;51.110;7.020;2022-08-24T01:02:50;19.40;99.90
8220;DHT22;4151;51.110;7.020;2022-08-24T01:05:16;19.40;99.90
8220;DHT22;4151;51.110;7.020;2022-08-24T01:07:42;19.20;99.90
8220;DHT22;4151;51.110;7.020;2022-08-24T01:10:11;19.20;99.90
8220;DHT22;4151;51.110;7.020;2022-08-24T01:12:41;19.20;99.90
8220;DHT22;4151;51.110;7.020;2022-08-24T01:15:08;19.20;99.90
8220;DHT22;4151;51.110;7.020;2022-08-24T01:17:35;19.10;99.90
8220;DHT22;4151;51.110;7.020;2022-08-24T01:20:20;19.10;99.90
8220;DHT22;4151;51.110;7.020;2022-08-24T01:22:59;19.10;99.90
8220;DHT22;4151;51.110;7.020;2022-08-24T01:25:28;19.10;99.90
8220;DHT22;4151;51.110;7.020;2022-08-24T01:27:56;19.10;99.90
8220;DHT22;4151;51.110;7.020;2022-08-24T01:30:24;19.10;99.90
8220;DHT22;4151;51.110;7.020;2022-08-24T01:32:59;19.10;99.90
8220;DHT22;4151;51.110;7.020;2022-08-24T01:35:26;19.00;99.90
8220;DHT22;4151;51.110;7.020;2022-08-24T01:37:53;19.10;99.90
8220;DHT22;4151;51.110;7.020;2022-08-24T01:40:21;19.00;99.90
8220;DHT22;4151;51.110;7.020;2022-08-24T01:42:51;19.00;99.90
8220;DHT22;4151;51.110;7.020;2022-08-24T01:45:18;19.00;99.90
8220;DHT22;4151;51.110;7.020;2022-08-24T01:47:44;19.00;99.90
8220;DHT22;4151;51.110;7.020;2022-08-24T01:50:10;19.00;99.90
8220;DHT22;4151;51.110;7.020;2022-08-24T01:52:38;19.00;99.90
8220;DHT22;4151;51.110;7.020;2022-08-24T01:55:07;19.00;99.90
8220;DHT22;4151;51.110;7.020;2022-08-24T01:57:33;18.90;99.90
8220;DHT22;4151;51.110;7.020;2022-08-24T01:59:59;19.00;99.90
8220;DHT22;4151;51.110;7.020;2022-08-24T02:02:28;19.00;99.90
8220;DHT22;4151;51.110;7.020;2022-08-24T02:04:55;19.00;99.90
8220;DHT22;4151;51.110;7.020;2022-08-24T02:07:21;19.00;99.90
8220;DHT22;4151;51.110;7.020;2022-08-24T02:09:47;19.00;99.90
8220;DHT22;4151;51.110;7.020;2022-08-24T02:12:13;19.00;99.90
8220;DHT22;4151;51.110;7.020;2022-08-24T02:14:39;19.00;99.90
8220;DHT22;4151;51.110;7.020;2022-08-24T02:17:06;19.00;99.90
8220;DHT22;4151;51.110;7.020;2022-08-24T02:19:33;18.90;99.90
8220;DHT22;4151;51.110;7.020;2022-08-24T02:21:59;18.80;99.90
8220;DHT22;4151;51.110;7.020;2022-08-24T02:24:26;18.80;99.90
8220;DHT22;4151;51.110;7.020;2022-08-24T02:26:52;18.80;99.90
8220;DHT22;4151;51.110;7.020;2022-08-24T02:29:18;18.80;99.90
8220;DHT22;4151;51.110;7.020;2022-08-24T02:31:43;18.70;99.90
8220;DHT22;4151;51.110;7.020;2022-08-24T02:34:09;18.60;99.90
8220;DHT22;4151;51.110;7.020;2022-08-24T02:36:35;18.60;99.90
8220;DHT22;4151;51.110;7.020;2022-08-24T02:39:01;18.60;99.90
8220;DHT22;4151;51.110;7.020;2022-08-24T02:41:26;18.60;99.90
8220;DHT22;4151;51.110;7.020;2022-08-24T02:43:53;18.50;99.90
8220;DHT22;4151;51.110;7.020;2022-08-24T02:46:21;18.50;99.90
8220;DHT22;4151;51.110;7.020;2022-08-24T02:48:47;18.50;99.90
8220;DHT22;4151;51.110;7.020;2022-08-24T02:51:27;18.50;99.90
8220;DHT22;4151;51.110;7.020;2022-08-24T02:53:54;18.40;99.90
8220;DHT22;4151;51.110;7.020;2022-08-24T02:56:20;18.40;99.90
8220;DHT22;4151;51.110;7.020;2022-08-24T02:58:47;18.30;99.90
8220;DHT22;4151;51.110;7.020;2022-08-24T03:01:14;18.30;99.90
8220;DHT22;4151;51.110;7.020;2022-08-24T03:03:40;18.20;99.90
8220;DHT22;4151;51.110;7.020;2022-08-24T03:06:07;18.20;99.90
8220;DHT22;4151;51.110;7.020;2022-08-24T03:08:34;18.10;99.90
8220;DHT22;4151;51.110;7.020;2022-08-24T03:10:59;18.00;99.90
8220;DHT22;4151;51.110;7.020;2022-08-24T03:13:26;18.10;99.90
8220;DHT22;4151;51.110;7.020;2022-08-24T03:15:53;18.00;99.90
8220;DHT22;4151;51.110;7.020;2022-08-24T03:18:20;18.00;99.90
8220;DHT22;4151;51.110;7.020;2022-08-24T03:20:46;18.00;99.90
8220;DHT22;4151;51.110;7.020;2022-08-24T03:23:12;18.00;99.90
8220;DHT22;4151;51.110;7.020;2022-08-24T03:25:38;18.00;99.90
8220;DHT22;4151;51.110;7.020;2022-08-24T03:28:04;17.90;99.90
8220;DHT22;4151;51.110;7.020;2022-08-24T03:30:29;17.90;99.90
8220;DHT22;4151;51.110;7.020;2022-08-24T03:32:55;17.90;99.90
8220;DHT22;4151;51.110;7.020;2022-08-24T03:35:20;17.90;99.90
8220;DHT22;4151;51.110;7.020;2022-08-24T03:37:48;17.90;99.90
8220;DHT22;4151;51.110;7.020;2022-08-24T03:40:14;17.90;99.90
8220;DHT22;4151;51.110;7.020;2022-08-24T03:42:39;17.90;99.90
8220;DHT22;4151;51.110;7.020;2022-08-24T03:45:06;17.80;99.90
8220;DHT22;4151;51.110;7.020;2022-08-24T03:47:32;17.80;99.90
8220;DHT22;4151;51.110;7.020;2022-08-24T03:49:57;17.90;99.90
8220;DHT22;4151;51.110;7.020;2022-08-24T03:52:23;17.80;99.90
8220;DHT22;4151;51.110;7.020;2022-08-24T03:54:48;17.80;99.90
8220;DHT22;4151;51.110;7.020;2022-08-24T03:57:14;17.80;99.90
8220;DHT22;4151;51.110;7.020;2022-08-24T03:59:40;17.80;99.90
8220;DHT22;4151;51.110;7.020;2022-08-24T04:02:06;17.80;99.90
8220;DHT22;4151;51.110;7.020;2022-08-24T04:04:31;17.80;99.90
8220;DHT22;4151;51.110;7.020;2022-08-24T04:06:57;17.70;99.90
8220;DHT22;4151;51.110;7.020;2022-08-24T04:09:23;17.60;99.90
8220;DHT22;4151;51.110;7.020;2022-08-24T04:11:49;17.50;99.90
8220;DHT22;4151;51.110;7.020;2022-08-24T04:14:15;17.50;99.90
8220;DHT22;4151;51.110;7.020;2022-08-24T04:16:41;17.50;99.90
8220;DHT22;4151;51.110;7.020;2022-08-24T04:19:07;17.50;99.90
8220;DHT22;4151;51.110;7.020;2022-08-24T04:21:35;17.50;99.90
8220;DHT22;4151;51.110;7.020;2022-08-24T04:24:02;17.50;99.90
8220;DHT22;4151;51.110;7.020;2022-08-24T04:26:28;17.40;99.90
8220;DHT22;4151;51.110;7.020;2022-08-24T04:28:55;17.40;99.90
8220;DHT22;4151;51.110;7.020;2022-08-24T04:31:21;17.40;99.90
8220;DHT22;4151;51.110;7.020;2022-08-24T04:33:49;17.40;99.90
8220;DHT22;4151;51.110;7.020;2022-08-24T04:36:16;17.40;99.90
8220;DHT22;4151;51.110;7.020;2022-08-24T04:38:42;17.40;99.90
8220;DHT22;4151;51.110;7.020;2022-08-24T04:41:09;17.40;99.90
8220;DHT22;4151;51.110;7.020;2022-08-24T04:43:39;17.30;99.90
8220;DHT22;4151;51.110;7.020;2022-08-24T04:46:07;17.30;99.90
8220;DHT22;4151;51.110;7.020;2022-08-24T04:48:33;17.30;99.90
8220;DHT22;4151;51.110;7.020;2022-08-24T04:51:04;17.30;99.90
8220;DHT22;4151;51.110;7.020;2022-08-24T04:53:31;17.30;99.90
8220;DHT22;4151;51.110;7.020;2022-08-24T04:55:57;17.30;99.90
8220;DHT22;4151;51.110;7.020;2022-08-24T04:58:24;17.30;99.90
8220;DHT22;4151;51.110;7.020;2022-08-24T05:00:49;17.30;99.90
8220;DHT22;4151;51.110;7.020;2022-08-24T05:03:15;17.30;99.90
8220;DHT22;4151;51.110;7.020;2022-08-24T05:05:46;17.30;99.90
8220;DHT22;4151;51.110;7.020;2022-08-24T05:08:12;17.30;99.90
8220;DHT22;4151;51.110;7.020;2022-08-24T05:10:40;17.30;99.90
8220;DHT22;4151;51.110;7.020;2022-08-24T05:13:06;17.30;99.90
8220;DHT22;4151;51.110;7.020;2022-08-24T05:15:34;17.30;99.90
8220;DHT22;4151;51.110;7.020;2022-08-24T05:18:01;17.30;99.90
8220;DHT22;4151;51.110;7.020;2022-08-24T05:20:27;17.30;99.90
8220;DHT22;4151;51.110;7.020;2022-08-24T05:22:54;17.40;99.90
8220;DHT22;4151;51.110;7.020;2022-08-24T05:25:20;17.30;99.90
8220;DHT22;4151;51.110;7.020;2022-08-24T05:27:46;17.40;99.90
8220;DHT22;4151;51.110;7.020;2022-08-24T05:30:12;17.40;99.90
8220;DHT22;4151;51.110;7.020;2022-08-24T05:32:38;17.50;99.90
8220;DHT22;4151;51.110;7.020;2022-08-24T05:35:05;17.50;99.90
8220;DHT22;4151;51.110;7.020;2022-08-24T05:37:34;17.60;99.90
8220;DHT22;4151;51.110;7.020;2022-08-24T05:40:02;17.60;99.90
8220;DHT22;4151;51.110;7.020;2022-08-24T05:42:27;17.70;99.90
8220;DHT22;4151;51.110;7.020;2022-08-24T05:44:53;17.80;99.90
8220;DHT22;4151;51.110;7.020;2022-08-24T05:47:19;17.80;99.90
8220;DHT22;4151;51.110;7.020;2022-08-24T05:49:44;17.90;99.90
8220;DHT22;4151;51.110;7.020;2022-08-24T05:52:10;18.00;99.90
8220;DHT22;4151;51.110;7.020;2022-08-24T05:54:36;18.10;99.90
8220;DHT22;4151;51.110;7.020;2022-08-24T05:57:02;18.10;99.90
8220;DHT22;4151;51.110;7.020;2022-08-24T05:59:29;18.20;99.90
8220;DHT22;4151;51.110;7.020;2022-08-24T06:01:55;18.30;99.90
8220;DHT22;4151;51.110;7.020;2022-08-24T06:04:20;18.40;99.90
8220;DHT22;4151;51.110;7.020;2022-08-24T06:06:47;18.50;99.90
8220;DHT22;4151;51.110;7.020;2022-08-24T06:09:12;18.60;99.90
8220;DHT22;4151;51.110;7.020;2022-08-24T06:11:39;18.70;99.90
8220;DHT22;4151;51.110;7.020;2022-08-24T06:14:11;18.80;99.90
8220;DHT22;4151;51.110;7.020;2022-08-24T06:16:40;18.90;99.90
8220;DHT22;4151;51.110;7.020;2022-08-24T06:19:08;19.00;99.90
8220;DHT22;4151;51.110;7.020;2022-08-24T06:21:34;19.10;99.90
8220;DHT22;4151;51.110;7.020;2022-08-24T06:24:00;19.20;99.90
8220;DHT22;4151;51.110;7.020;2022-08-24T06:26:27;19.30;99.90
8220;DHT22;4151;51.110;7.020;2022-08-24T06:29:11;19.40;99.90
8220;DHT22;4151;51.110;7.020;2022-08-24T06:31:42;19.60;99.90
8220;DHT22;4151;51.110;7.020;2022-08-24T06:34:10;19.70;99.90
8220;DHT22;4151;51.110;7.020;2022-08-24T06:36:36;19.80;99.90
8220;DHT22;4151;51.110;7.020;2022-08-24T06:39:03;19.90;99.90
8220;DHT22;4151;51.110;7.020;2022-08-24T06:41:28;20.00;99.90
8220;DHT22;4151;51.110;7.020;2022-08-24T06:43:54;20.10;99.90
8220;DHT22;4151;51.110;7.020;2022-08-24T06:46:20;20.20;99.90
8220;DHT22;4151;51.110;7.020;2022-08-24T06:48:46;20.30;99.90
8220;DHT22;4151;51.110;7.020;2022-08-24T06:51:14;20.40;99.90
8220;DHT22;4151;51.110;7.020;2022-08-24T06:53:41;20.60;99.90
8220;DHT22;4151;51.110;7.020;2022-08-24T06:56:07;20.80;99.90
8220;DHT22;4151;51.110;7.020;2022-08-24T06:58:34;21.00;99.90
8220;DHT22;4151;51.110;7.020;2022-08-24T07:01:17;21.20;99.90
8220;DHT22;4151;51.110;7.020;2022-08-24T07:03:43;21.40;99.90
8220;DHT22;4151;51.110;7.020;2022-08-24T07:06:10;21.60;99.90
8220;DHT22;4151;51.110;7.020;2022-08-24T07:08:37;21.80;99.90
8220;DHT22;4151;51.110;7.020;2022-08-24T07:11:03;22.10;99.90
8220;DHT22;4151;51.110;7.020;2022-08-24T07:13:31;22.30;99.90
8220;DHT22;4151;51.110;7.020;2022-08-24T07:15:57;22.50;99.90
8220;DHT22;4151;51.110;7.020;2022-08-24T07:18:23;22.70;99.90
8220;DHT22;4151;51.110;7.020;2022-08-24T07:20:49;22.90;99.90
8220;DHT22;4151;51.110;7.020;2022-08-24T07:23:16;23.00;99.90
8220;DHT22;4151;51.110;7.020;2022-08-24T07:25:43;23.20;99.90
8220;DHT22;4151;51.110;7.020;2022-08-24T07:28:09;23.30;99.90
8220;DHT22;4151;51.110;7.020;2022-08-24T07:30:36;23.40;99.90
8220;DHT22;4151;51.110;7.020;2022-08-24T07:33:02;23.60;99.90
8220;DHT22;4151;51.110;7.020;2022-08-24T07:35:30;23.70;99.90
8220;DHT22;4151;51.110;7.020;2022-08-24T07:37:57;23.80;99.90
8220;DHT22;4151;51.110;7.020;2022-08-24T07:40:24;23.80;99.90
8220;DHT22;4151;51.110;7.020;2022-08-24T07:42:51;23.90;99.90
8220;DHT22;4151;51.110;7.020;2022-08-24T07:45:18;24.00;99.90
8220;DHT22;4151;51.110;7.020;2022-08-24T07:47:44;24.20;99.90
8220;DHT22;4151;51.110;7.020;2022-08-24T07:50:12;24.20;99.90
8220;DHT22;4151;51.110;7.020;2022-08-24T07:52:37;24.30;99.90
8220;DHT22;4151;51.110;7.020;2022-08-24T07:55:03;24.30;99.90
8220;DHT22;4151;51.110;7.020;2022-08-24T07:57:30;24.40;99.90
8220;DHT22;4151;51.110;7.020;2022-08-24T07:59:58;24.60;99.90
8220;DHT22;4151;51.110;7.020;2022-08-24T08:02:24;24.70;99.90
8220;DHT22;4151;51.110;7.020;2022-08-24T08:04:49;24.80;99.90
8220;DHT22;4151;51.110;7.020;2022-08-24T08:07:15;24.90;99.90
8220;DHT22;4151;51.110;7.020;2022-08-24T08:09:42;25.00;99.90
8220;DHT22;4151;51.110;7.020;2022-08-24T08:12:07;24.90;99.90
8220;DHT22;4151;51.110;7.020;2022-08-24T08:14:33;25.10;99.90
8220;DHT22;4151;51.110;7.020;2022-08-24T08:16:59;25.30;99.90
8220;DHT22;4151;51.110;7.020;2022-08-24T08:19:25;25.40;99.90
8220;DHT22;4151;51.110;7.020;2022-08-24T08:21:52;25.50;99.90
8220;DHT22;4151;51.110;7.020;2022-08-24T08:24:38;25.60;99.90
8220;DHT22;4151;51.110;7.020;2022-08-24T08:27:04;25.70;99.90
8220;DHT22;4151;51.110;7.020;2022-08-24T08:29:31;26.00;99.90
8220;DHT22;4151;51.110;7.020;2022-08-24T08:31:58;26.40;99.90
8220;DHT22;4151;51.110;7.020;2022-08-24T08:34:23;26.40;99.90
8220;DHT22;4151;51.110;7.020;2022-08-24T08:36:49;26.60;99.90
8220;DHT22;4151;51.110;7.020;2022-08-24T08:39:18;26.70;99.90
8220;DHT22;4151;51.110;7.020;2022-08-24T08:57:05;28.20;99.90
8220;DHT22;4151;51.110;7.020;2022-08-24T09:10:38;29.70;99.90
8220;DHT22;4151;51.110;7.020;2022-08-24T09:16:22;30.50;99.90
8220;DHT22;4151;51.110;7.020;2022-08-24T09:32:50;30.80;99.90
8220;DHT22;4151;51.110;7.020;2022-08-24T09:38:06;31.30;98.90
8220;DHT22;4151;51.110;7.020;2022-08-24T10:07:49;35.40;88.20
8220;DHT22;4151;51.110;7.020;2022-08-24T10:11:19;36.00;85.40
8220;DHT22;4151;51.110;7.020;2022-08-24T10:18:54;36.50;81.40
8220;DHT22;4151;51.110;7.020;2022-08-24T10:21:51;36.40;79.20
8220;DHT22;4151;51.110;7.020;2022-08-24T10:51:33;36.60;73.60
8220;DHT22;4151;51.110;7.020;2022-08-24T10:54:02;37.60;73.40
8220;DHT22;4151;51.110;7.020;2022-08-24T10:56:39;36.90;73.40
8220;DHT22;4151;51.110;7.020;2022-08-24T11:01:37;35.90;74.60
8220;DHT22;4151;51.110;7.020;2022-08-24T11:06:39;36.60;74.00
8220;DHT22;4151;51.110;7.020;2022-08-24T11:09:13;36.80;71.90
8220;DHT22;4151;51.110;7.020;2022-08-24T11:11:46;35.90;73.20
8220;DHT22;4151;51.110;7.020;2022-08-24T11:16:45;34.70;74.70
8220;DHT22;4151;51.110;7.020;2022-08-24T11:19:32;35.00;74.60
8220;DHT22;4151;51.110;7.020;2022-08-24T11:22:03;34.70;74.60
8220;DHT22;4151;51.110;7.020;2022-08-24T11:24:43;34.60;75.10
8220;DHT22;4151;51.110;7.020;2022-08-24T11:32:51;36.10;74.70
8220;DHT22;4151;51.110;7.020;2022-08-24T11:35:24;36.80;71.10
8220;DHT22;4151;51.110;7.020;2022-08-24T11:37:54;37.70;69.80
8220;DHT22;4151;51.110;7.020;2022-08-24T11:40:26;37.70;69.40
8220;DHT22;4151;51.110;7.020;2022-08-24T11:43:30;36.80;69.70
8220;DHT22;4151;51.110;7.020;2022-08-24T11:54:04;36.40;68.90
8220;DHT22;4151;51.110;7.020;2022-08-24T11:56:49;36.80;70.30
8220;DHT22;4151;51.110;7.020;2022-08-24T12:00:08;37.80;69.30
8220;DHT22;4151;51.110;7.020;2022-08-24T12:02:59;38.10;68.30
8220;DHT22;4151;51.110;7.020;2022-08-24T12:08:22;38.90;67.50
8220;DHT22;4151;51.110;7.020;2022-08-24T12:16:21;39.50;66.20
8220;DHT22;4151;51.110;7.020;2022-08-24T12:18:51;40.10;65.80
8220;DHT22;4151;51.110;7.020;2022-08-24T12:21:24;40.40;63.60
8220;DHT22;4151;51.110;7.020;2022-08-24T12:23:58;39.60;62.40
8220;DHT22;4151;51.110;7.020;2022-08-24T12:26:28;38.60;63.60
8220;DHT22;4151;51.110;7.020;2022-08-24T12:29:00;38.60;64.50
8220;DHT22;4151;51.110;7.020;2022-08-24T12:31:51;38.50;64.00
8220;DHT22;4151;51.110;7.020;2022-08-24T12:42:37;41.80;60.30
8220;DHT22;4151;51.110;7.020;2022-08-24T12:45:08;42.30;58.90
8220;DHT22;4151;51.110;7.020;2022-08-24T12:50:39;42.70;58.10
8220;DHT22;4151;51.110;7.020;2022-08-24T13:00:06;43.60;56.20
8220;DHT22;4151;51.110;7.020;2022-08-24T13:02:40;43.70;55.80
8220;DHT22;4151;51.110;7.020;2022-08-24T13:05:15;43.20;56.20
8220;DHT22;4151;51.110;7.020;2022-08-24T13:07:47;43.40;55.80
8220;DHT22;4151;51.110;7.020;2022-08-24T13:10:34;43.30;55.50
8220;DHT22;4151;51.110;7.020;2022-08-24T13:13:12;42.90;54.80
8220;DHT22;4151;51.110;7.020;2022-08-24T13:28:07;40.30;56.50
8220;DHT22;4151;51.110;7.020;2022-08-24T13:30:50;41.20;56.00
8220;DHT22;4151;51.110;7.020;2022-08-24T13:38:57;38.40;57.50
8220;DHT22;4151;51.110;7.020;2022-08-24T13:44:22;37.50;58.70
8220;DHT22;4151;51.110;7.020;2022-08-24T13:47:22;37.70;57.50
8220;DHT22;4151;51.110;7.020;2022-08-24T14:01:17;40.00;55.80
8220;DHT22;4151;51.110;7.020;2022-08-24T14:10:03;41.10;54.40
8220;DHT22;4151;51.110;7.020;2022-08-24T14:12:42;40.90;54.80
8220;DHT22;4151;51.110;7.020;2022-08-24T14:18:21;41.10;55.00
8220;DHT22;4151;51.110;7.020;2022-08-24T14:23:55;41.30;54.60
8220;DHT22;4151;51.110;7.020;2022-08-24T14:34:59;44.50;53.40
8220;DHT22;4151;51.110;7.020;2022-08-24T14:37:46;47.00;50.30
8220;DHT22;4151;51.110;7.020;2022-08-24T15:07:31;41.30;51.10
8220;DHT22;4151;51.110;7.020;2022-08-24T15:09:58;41.00;52.10
8220;DHT22;4151;51.110;7.020;2022-08-24T15:12:38;42.40;52.20
8220;DHT22;4151;51.110;7.020;2022-08-24T15:17:53;41.70;50.40
8220;DHT22;4151;51.110;7.020;2022-08-24T15:23:09;41.60;51.30
8220;DHT22;4151;51.110;7.020;2022-08-24T15:28:09;43.40;50.40
8220;DHT22;4151;51.110;7.020;2022-08-24T15:30:38;44.50;50.00
8220;DHT22;4151;51.110;7.020;2022-08-24T15:33:14;45.20;49.00
8220;DHT22;4151;51.110;7.020;2022-08-24T15:36:02;44.00;48.80
8220;DHT22;4151;51.110;7.020;2022-08-24T15:41:18;45.60;48.90
8220;DHT22;4151;51.110;7.020;2022-08-24T15:44:03;46.50;48.50
8220;DHT22;4151;51.110;7.020;2022-08-24T15:46:36;45.10;48.00
8220;DHT22;4151;51.110;7.020;2022-08-24T15:49:29;45.20;48.20
8220;DHT22;4151;51.110;7.020;2022-08-24T15:52:08;44.70;48.40
8220;DHT22;4151;51.110;7.020;2022-08-24T15:54:59;46.80;47.50
8220;DHT22;4151;51.110;7.020;2022-08-24T15:57:29;47.80;46.80
8220;DHT22;4151;51.110;7.020;2022-08-24T16:00:07;49.20;46.30
8220;DHT22;4151;51.110;7.020;2022-08-24T16:02:33;49.80;45.70
8220;DHT22;4151;51.110;7.020;2022-08-24T16:10:31;51.10;44.70
8220;DHT22;4151;51.110;7.020;2022-08-24T16:15:55;48.30;45.10
8220;DHT22;4151;51.110;7.020;2022-08-24T16:21:36;48.50;45.50
8220;DHT22;4151;51.110;7.020;2022-08-24T16:32:20;48.50;45.40
8220;DHT22;4151;51.110;7.020;2022-08-24T16:34:52;49.00;44.50
8220;DHT22;4151;51.110;7.020;2022-08-24T16:37:19;49.50;44.40
8220;DHT22;4151;51.110;7.020;2022-08-24T16:39:47;48.50;44.30
8220;DHT22;4151;51.110;7.020;2022-08-24T16:42:22;48.40;45.20
8220;DHT22;4151;51.110;7.020;2022-08-24T16:44:48;48.60;44.70
8220;DHT22;4151;51.110;7.020;2022-08-24T16:47:14;47.80;44.30
8220;DHT22;4151;51.110;7.020;2022-08-24T16:49:39;47.00;45.60
8220;DHT22;4151;51.110;7.020;2022-08-24T16:52:06;47.50;46.10
8220;DHT22;4151;51.110;7.020;2022-08-24T16:54:31;47.70;44.90
8220;DHT22;4151;51.110;7.020;2022-08-24T16:57:07;47.60;44.60
8220;DHT22;4151;51.110;7.020;2022-08-24T16:59:35;47.70;45.30
8220;DHT22;4151;51.110;7.020;2022-08-24T17:02:02;48.10;44.30
8220;DHT22;4151;51.110;7.020;2022-08-24T17:04:27;48.30;44.70
8220;DHT22;4151;51.110;7.020;2022-08-24T17:06:53;48.10;45.00
8220;DHT22;4151;51.110;7.020;2022-08-24T17:09:20;48.20;45.70
8220;DHT22;4151;51.110;7.020;2022-08-24T17:11:46;48.10;45.00
8220;DHT22;4151;51.110;7.020;2022-08-24T17:14:13;47.90;45.00
8220;DHT22;4151;51.110;7.020;2022-08-24T17:16:39;47.60;44.80
8220;DHT22;4151;51.110;7.020;2022-08-24T17:19:08;47.20;44.80
8220;DHT22;4151;51.110;7.020;2022-08-24T17:21:37;46.30;46.10
8220;DHT22;4151;51.110;7.020;2022-08-24T17:24:07;46.50;46.30
8220;DHT22;4151;51.110;7.020;2022-08-24T17:39:18;39.60;52.60
8220;DHT22;4151;51.110;7.020;2022-08-24T17:41:44;38.70;53.50
8220;DHT22;4151;51.110;7.020;2022-08-24T17:44:13;37.90;54.20
8220;DHT22;4151;51.110;7.020;2022-08-24T17:46:39;37.90;54.60
8220;DHT22;4151;51.110;7.020;2022-08-24T17:49:06;37.90;54.90
8220;DHT22;4151;51.110;7.020;2022-08-24T17:51:33;37.80;55.10
8220;DHT22;4151;51.110;7.020;2022-08-24T17:53:58;37.70;55.30
8220;DHT22;4151;51.110;7.020;2022-08-24T17:56:26;37.70;55.70
8220;DHT22;4151;51.110;7.020;2022-08-24T17:58:54;37.80;55.70
8220;DHT22;4151;51.110;7.020;2022-08-24T18:01:38;37.60;56.20
8220;DHT22;4151;51.110;7.020;2022-08-24T18:04:03;37.40;56.40
8220;DHT22;4151;51.110;7.020;2022-08-24T18:06:30;37.10;56.80
8220;DHT22;4151;51.110;7.020;2022-08-24T18:08:59;36.90;57.60
8220;DHT22;4151;51.110;7.020;2022-08-24T18:11:27;36.70;57.80
8220;DHT22;4151;51.110;7.020;2022-08-24T18:13:52;36.10;58.60
8220;DHT22;4151;51.110;7.020;2022-08-24T18:16:21;35.20;60.90
8220;DHT22;4151;51.110;7.020;2022-08-24T18:18:49;34.30;62.50
8220;DHT22;4151;51.110;7.020;2022-08-24T18:21:15;33.50;64.00
8220;DHT22;4151;51.110;7.020;2022-08-24T18:23:40;32.70;66.40
8220;DHT22;4151;51.110;7.020;2022-08-24T18:26:07;32.10;68.90
8220;DHT22;4151;51.110;7.020;2022-08-24T18:28:34;31.50;69.80
8220;DHT22;4151;51.110;7.020;2022-08-24T18:31:01;31.00;71.50
8220;DHT22;4151;51.110;7.020;2022-08-24T18:33:26;30.50;73.50
8220;DHT22;4151;51.110;7.020;2022-08-24T18:35:52;30.00;74.50
8220;DHT22;4151;51.110;7.020;2022-08-24T18:38:17;29.60;75.50
8220;DHT22;4151;51.110;7.020;2022-08-24T18:40:43;29.30;76.70
8220;DHT22;4151;51.110;7.020;2022-08-24T18:43:11;29.00;78.00
8220;DHT22;4151;51.110;7.020;2022-08-24T18:45:38;28.70;79.50
8220;DHT22;4151;51.110;7.020;2022-08-24T18:48:04;28.50;79.80
8220;DHT22;4151;51.110;7.020;2022-08-24T18:50:30;28.40;81.50
8220;DHT22;4151;51.110;7.020;2022-08-24T18:52:57;28.20;81.70
8220;DHT22;4151;51.110;7.020;2022-08-24T18:55:24;28.10;83.40
8220;DHT22;4151;51.110;7.020;2022-08-24T18:57:50;27.90;84.70
8220;DHT22;4151;51.110;7.020;2022-08-24T19:00:16;27.90;87.30
8220;DHT22;4151;51.110;7.020;2022-08-24T19:02:42;27.80;87.00
8220;DHT22;4151;51.110;7.020;2022-08-24T19:05:16;27.60;88.70
8220;DHT22;4151;51.110;7.020;2022-08-24T19:07:46;27.60;90.40
8220;DHT22;4151;51.110;7.020;2022-08-24T19:10:15;27.50;90.60
8220;DHT22;4151;51.110;7.020;2022-08-24T19:12:46;27.40;91.20
8220;DHT22;4151;51.110;7.020;2022-08-24T19:15:14;27.40;90.90
8220;DHT22;4151;51.110;7.020;2022-08-24T19:17:39;27.20;91.30
8220;DHT22;4151;51.110;7.020;2022-08-24T19:20:07;27.20;92.40
8220;DHT22;4151;51.110;7.020;2022-08-24T19:22:34;27.10;92.70
8220;DHT22;4151;51.110;7.020;2022-08-24T19:25:00;27.10;93.10
8220;DHT22;4151;51.110;7.020;2022-08-24T19:27:27;27.00;93.60
8220;DHT22;4151;51.110;7.020;2022-08-24T19:29:53;27.00;94.40
8220;DHT22;4151;51.110;7.020;2022-08-24T19:32:21;26.90;94.60
8220;DHT22;4151;51.110;7.020;2022-08-24T19:34:49;26.80;94.50
8220;DHT22;4151;51.110;7.020;2022-08-24T19:37:15;26.80;95.90
8220;DHT22;4151;51.110;7.020;2022-08-24T19:39:41;26.70;95.90
8220;DHT22;4151;51.110;7.020;2022-08-24T19:42:06;26.60;96.30
8220;DHT22;4151;51.110;7.020;2022-08-24T19:44:32;26.70;96.20
8220;DHT22;4151;51.110;7.020;2022-08-24T19:47:16;26.60;96.30
8220;DHT22;4151;51.110;7.020;2022-08-24T19:49:42;26.60;96.70
8220;DHT22;4151;51.110;7.020;2022-08-24T19:52:08;26.60;96.50
8220;DHT22;4151;51.110;7.020;2022-08-24T19:54:36;26.60;96.70
8220;DHT22;4151;51.110;7.020;2022-08-24T19:59:57;26.50;96.90
8220;DHT22;4151;51.110;7.020;2022-08-24T20:02:24;26.60;97.80
8220;DHT22;4151;51.110;7.020;2022-08-24T20:04:49;26.50;97.40
8220;DHT22;4151;51.110;7.020;2022-08-24T20:07:15;26.50;97.30
8220;DHT22;4151;51.110;7.020;2022-08-24T20:09:42;26.50;97.80
8220;DHT22;4151;51.110;7.020;2022-08-24T20:12:07;26.50;97.60
8220;DHT22;4151;51.110;7.020;2022-08-24T20:14:33;26.50;97.60
8220;DHT22;4151;51.110;7.020;2022-08-24T20:16:59;26.50;98.10
8220;DHT22;4151;51.110;7.020;2022-08-24T20:19:26;26.50;98.10
8220;DHT22;4151;51.110;7.020;2022-08-24T20:21:51;26.40;98.50
8220;DHT22;4151;51.110;7.020;2022-08-24T20:24:17;26.30;98.20
8220;DHT22;4151;51.110;7.020;2022-08-24T20:26:44;26.30;98.00
8220;DHT22;4151;51.110;7.020;2022-08-24T20:29:10;26.30;97.80
8220;DHT22;4151;51.110;7.020;2022-08-24T20:31:37;26.30;98.00
8220;DHT22;4151;51.110;7.020;2022-08-24T20:34:03;26.30;98.30
8220;DHT22;4151;51.110;7.020;2022-08-24T20:36:37;26.30;98.20
8220;DHT22;4151;51.110;7.020;2022-08-24T20:39:07;26.30;98.90
8220;DHT22;4151;51.110;7.020;2022-08-24T20:41:33;26.30;98.40
8220;DHT22;4151;51.110;7.020;2022-08-24T20:44:00;26.30;97.80
8220;DHT22;4151;51.110;7.020;2022-08-24T20:46:26;26.30;98.10
8220;DHT22;4151;51.110;7.020;2022-08-24T20:48:53;26.30;97.90
8220;DHT22;4151;51.110;7.020;2022-08-24T20:51:19;26.30;97.00
8220;DHT22;4151;51.110;7.020;2022-08-24T20:53:44;26.30;97.00